Saint Bonnet de Bellac- Haute Vienne - France
Donnes mto: lundi, 28/05/2012
Date Horaire Temp. E. Hum. E. P.atmo. Pluie Vent Direction Direction Ensoleilleme Solaire P. de rose Temp au vent Rafales
28/05/2012 00:00 14,6 C 74 % 1017,3 hPa 0,0 mm 0,0 km/h (0 Bft) N-NO 337 0 min 0 W/m 10,0 C 14,6 C 0,0 km/h (0 Bft)
28/05/2012 00:10 14,4 C 74 % 1017,3 hPa 0,0 mm 0,0 km/h (0 Bft) N-NO 337 0 min 0 W/m 9,8 C 14,4 C 0,0 km/h (0 Bft)
28/05/2012 00:20 14,3 C 75 % 1017,3 hPa 0,0 mm 0,0 km/h (0 Bft) N-NO 337 0 min 0 W/m 9,9 C 14,3 C 0,0 km/h (0 Bft)
28/05/2012 00:30 14,1 C 76 % 1017,4 hPa 0,0 mm 0,0 km/h (0 Bft) N-NO 337 0 min 0 W/m 9,9 C 14,1 C 0,0 km/h (0 Bft)
28/05/2012 00:40 13,9 C 76 % 1017,4 hPa 0,0 mm 0,0 km/h (0 Bft) N-NO 337 0 min 0 W/m 9,7 C 13,9 C 0,0 km/h (0 Bft)
28/05/2012 00:50 13,8 C 77 % 1017,5 hPa 0,0 mm 0,0 km/h (0 Bft) N-NO 337 0 min 0 W/m 9,8 C 13,8 C 0,0 km/h (0 Bft)
28/05/2012 01:00 13,8 C 78 % 1017,5 hPa 0,0 mm 0,0 km/h (0 Bft) N-NO 337 0 min 0 W/m 10,0 C 13,8 C 0,0 km/h (0 Bft)
28/05/2012 01:10 13,6 C 78 % 1017,6 hPa 0,0 mm 0,0 km/h (0 Bft) N-NO 337 0 min 0 W/m 9,8 C 13,6 C 0,0 km/h (0 Bft)
28/05/2012 01:20 13,4 C 79 % 1017,6 hPa 0,0 mm 0,0 km/h (0 Bft) N-NO 337 0 min 0 W/m 9,8 C 13,4 C 0,0 km/h (0 Bft)
28/05/2012 01:30 13,3 C 79 % 1017,7 hPa 0,0 mm 0,0 km/h (0 Bft) N-NO 337 0 min 0 W/m 9,7 C 13,3 C 0,0 km/h (0 Bft)
28/05/2012 01:40 13,2 C 79 % 1017,5 hPa 0,0 mm 0,0 km/h (0 Bft) N-NO 337 0 min 0 W/m 9,6 C 13,2 C 0,0 km/h (0 Bft)
28/05/2012 01:50 13,1 C 80 % 1017,5 hPa 0,0 mm 0,0 km/h (0 Bft) N-NO 337 0 min 0 W/m 9,7 C 13,1 C 0,0 km/h (0 Bft)
28/05/2012 02:00 13,0 C 81 % 1017,5 hPa 0,0 mm 0,0 km/h (0 Bft) N-NO 337 0 min 0 W/m 9,8 C 13,0 C 0,0 km/h (0 Bft)
28/05/2012 02:10 12,9 C 81 % 1017,4 hPa 0,0 mm 0,0 km/h (0 Bft) N-NO 337 0 min 0 W/m 9,7 C 12,9 C 0,0 km/h (0 Bft)
28/05/2012 02:20 12,9 C 81 % 1017,3 hPa 0,0 mm 0,0 km/h (0 Bft) N-NO 337 0 min 0 W/m 9,7 C 12,9 C 0,0 km/h (0 Bft)
28/05/2012 02:30 12,9 C 82 % 1017,2 hPa 0,0 mm 0,0 km/h (0 Bft) N-NO 337 0 min 0 W/m 9,9 C 12,9 C 0,0 km/h (0 Bft)
28/05/2012 02:40 12,9 C 82 % 1017,2 hPa 0,0 mm 0,0 km/h (0 Bft) N-NO 337 0 min 0 W/m 9,9 C 12,9 C 0,0 km/h (0 Bft)
28/05/2012 02:50 12,9 C 83 % 1017,2 hPa 0,0 mm 0,0 km/h (0 Bft) N-NO 337 0 min 0 W/m 10,1 C 12,9 C 0,0 km/h (0 Bft)
28/05/2012 03:02 12,8 C 83 % 1017,1 hPa 0,0 mm 0,0 km/h (0 Bft) N-NO 337 0 min 0 W/m 10,0 C 12,8 C 0,0 km/h (0 Bft)
28/05/2012 03:10 12,6 C 83 % 1017,1 hPa 0,0 mm 0,0 km/h (0 Bft) N-NO 337 0 min 0 W/m 9,8 C 12,6 C 0,0 km/h (0 Bft)
28/05/2012 03:20 12,6 C 84 % 1017,0 hPa 0,0 mm 0,0 km/h (0 Bft) N-NO 337 0 min 0 W/m 10,0 C 12,6 C 0,0 km/h (0 Bft)
28/05/2012 03:30 12,4 C 84 % 1017,0 hPa 0,0 mm 0,0 km/h (0 Bft) N-NO 337 0 min 0 W/m 9,8 C 12,4 C 0,0 km/h (0 Bft)
28/05/2012 03:40 12,3 C 84 % 1017,0 hPa 0,0 mm 0,0 km/h (0 Bft) N-NO 337 0 min 0 W/m 9,7 C 12,3 C 0,0 km/h (0 Bft)
28/05/2012 03:50 12,2 C 84 % 1017,2 hPa 0,0 mm 0,0 km/h (0 Bft) O 270 0 min 0 W/m 9,6 C 12,2 C 0,0 km/h (0 Bft)
28/05/2012 04:00 12,0 C 85 % 1017,0 hPa 0,0 mm 0,0 km/h (0 Bft) O 270 0 min 0 W/m 9,6 C 12,0 C 0,0 km/h (0 Bft)
28/05/2012 04:10 11,9 C 86 % 1016,9 hPa 0,0 mm 0,0 km/h (0 Bft) O 270 0 min 0 W/m 9,6 C 11,9 C 0,0 km/h (0 Bft)
28/05/2012 04:20 11,8 C 86 % 1017,0 hPa 0,0 mm 0,0 km/h (0 Bft) O 270 0 min 0 W/m 9,5 C 11,8 C 0,0 km/h (0 Bft)
28/05/2012 04:30 11,8 C 86 % 1017,0 hPa 0,0 mm 0,0 km/h (0 Bft) O 270 0 min 0 W/m 9,5 C 11,8 C 0,0 km/h (0 Bft)
28/05/2012 04:40 11,7 C 86 % 1017,1 hPa 0,0 mm 0,0 km/h (0 Bft) O 270 0 min 0 W/m 9,4 C 11,7 C 0,0 km/h (0 Bft)
28/05/2012 04:50 11,6 C 86 % 1017,1 hPa 0,0 mm 0,0 km/h (0 Bft) O 270 0 min 0 W/m 9,3 C 11,6 C 0,0 km/h (0 Bft)
28/05/2012 05:00 11,5 C 86 % 1017,2 hPa 0,0 mm 0,0 km/h (0 Bft) O 270 0 min 0 W/m 9,2 C 11,5 C 0,0 km/h (0 Bft)
28/05/2012 05:10 11,4 C 86 % 1017,2 hPa 0,0 mm 0,0 km/h (0 Bft) O 270 0 min 0 W/m 9,1 C 11,4 C 0,0 km/h (0 Bft)
28/05/2012 05:20 11,4 C 86 % 1017,2 hPa 0,0 mm 0,0 km/h (0 Bft) O 270 0 min 0 W/m 9,1 C 11,4 C 0,0 km/h (0 Bft)
28/05/2012 05:30 11,3 C 86 % 1017,3 hPa 0,0 mm 0,0 km/h (0 Bft) O 270 0 min 0 W/m 9,0 C 11,3 C 0,0 km/h (0 Bft)
28/05/2012 05:40 11,2 C 86 % 1017,3 hPa 0,0 mm 0,0 km/h (0 Bft) N-NO 337 0 min 0 W/m 8,9 C 11,2 C 0,0 km/h (0 Bft)
28/05/2012 05:50 11,1 C 86 % 1017,2 hPa 0,0 mm 0,0 km/h (0 Bft) N-NO 337 0 min 0 W/m 8,8 C 11,1 C 0,0 km/h (0 Bft)
28/05/2012 06:00 11,0 C 87 % 1017,2 hPa 0,0 mm 0,0 km/h (0 Bft) N-NO 337 0 min 0 W/m 8,9 C 11,0 C 0,0 km/h (0 Bft)
28/05/2012 06:10 10,9 C 87 % 1017,3 hPa 0,0 mm 0,0 km/h (0 Bft) N-NO 337 0 min 0 W/m 8,8 C 10,9 C 0,0 km/h (0 Bft)
28/05/2012 06:20 10,8 C 87 % 1017,5 hPa 0,0 mm 0,0 km/h (0 Bft) E-NE 67 0 min 0 W/m 8,7 C 10,8 C 0,0 km/h (0 Bft)
28/05/2012 06:30 10,8 C 87 % 1017,5 hPa 0,0 mm 0,0 km/h (0 Bft) E-NE 67 0 min 0 W/m 8,7 C 10,8 C 0,0 km/h (0 Bft)
28/05/2012 06:40 10,8 C 87 % 1017,6 hPa 0,0 mm 0,0 km/h (0 Bft) E-NE 67 0 min 0 W/m 8,7 C 10,8 C 0,0 km/h (0 Bft)
28/05/2012 06:50 10,8 C 87 % 1017,6 hPa 0,0 mm 0,0 km/h (0 Bft) E-NE 67 0 min 0 W/m 8,7 C 10,8 C 0,0 km/h (0 Bft)
28/05/2012 07:00 10,8 C 88 % 1017,7 hPa 0,0 mm 0,0 km/h (0 Bft) E-NE 67 0 min 0 W/m 8,9 C 10,8 C 0,0 km/h (0 Bft)
28/05/2012 07:10 10,9 C 89 % 1017,7 hPa 0,0 mm 0,0 km/h (0 Bft) E-NE 67 0 min 0 W/m 9,2 C 10,9 C 0,0 km/h (0 Bft)
28/05/2012 07:20 11,2 C 90 % 1017,8 hPa 0,0 mm 0,0 km/h (0 Bft) E-NE 67 0 min 0 W/m 9,6 C 11,2 C 0,0 km/h (0 Bft)
28/05/2012 07:30 11,6 C 90 % 1017,8 hPa 0,0 mm 0,0 km/h (0 Bft) E-NE 67 0 min 0 W/m 10,0 C 11,6 C 0,0 km/h (0 Bft)
28/05/2012 07:40 12,1 C 90 % 1017,7 hPa 0,0 mm 0,0 km/h (0 Bft) E-NE 67 0 min 0 W/m 10,5 C 12,1 C 0,0 km/h (0 Bft)
28/05/2012 07:50 12,6 C 90 % 1017,9 hPa 0,0 mm 1,4 km/h (1 Bft) N-NE 22 0 min 0 W/m 11,0 C 12,6 C 4,3 km/h (1 Bft)
28/05/2012 08:00 13,3 C 90 % 1017,8 hPa 0,0 mm 0,0 km/h (0 Bft) N-NE 22 0 min 0 W/m 11,7 C 13,3 C 0,0 km/h (0 Bft)
28/05/2012 08:10 13,9 C 89 % 1018,1 hPa 0,0 mm 0,0 km/h (0 Bft) N 360 0 min 0 W/m 12,1 C 13,9 C 0,0 km/h (0 Bft)
28/05/2012 08:20 14,4 C 88 % 1018,1 hPa 0,0 mm 0,0 km/h (0 Bft) N 360 0 min 0 W/m 12,4 C 14,4 C 0,0 km/h (0 Bft)
28/05/2012 08:30 14,9 C 88 % 1018,2 hPa 0,0 mm 0,0 km/h (0 Bft) N 360 0 min 0 W/m 12,9 C 14,9 C 3,2 km/h (1 Bft)
28/05/2012 08:40 15,4 C 86 % 1018,2 hPa 0,0 mm 2,5 km/h (1 Bft) NE 45 0 min 0 W/m 13,1 C 15,4 C 4,0 km/h (1 Bft)
28/05/2012 08:50 15,8 C 85 % 1018,3 hPa 0,0 mm 0,7 km/h (0 Bft) N-NE 22 0 min 0 W/m 13,3 C 15,8 C 4,0 km/h (1 Bft)
28/05/2012 09:00 16,4 C 84 % 1018,3 hPa 0,0 mm 0,0 km/h (0 Bft) N-NO 337 0 min 0 W/m 13,7 C 16,4 C 0,0 km/h (0 Bft)
28/05/2012 09:10 16,9 C 83 % 1018,4 hPa 0,0 mm 0,0 km/h (0 Bft) N-NO 337 0 min 0 W/m 14,0 C 16,9 C 0,0 km/h (0 Bft)
28/05/2012 09:20 17,5 C 82 % 1018,5 hPa 0,0 mm 0,4 km/h (0 Bft) N 360 0 min 0 W/m 14,4 C 17,5 C 4,0 km/h (1 Bft)
28/05/2012 09:30 18,1 C 81 % 1018,7 hPa 0,0 mm 0,4 km/h (0 Bft) N-NE 22 0 min 0 W/m 14,8 C 18,1 C 3,6 km/h (1 Bft)
28/05/2012 09:40 18,5 C 80 % 1018,6 hPa 0,0 mm 1,1 km/h (1 Bft) N-NE 22 0 min 0 W/m 15,0 C 18,5 C 4,7 km/h (1 Bft)
28/05/2012 09:50 19,1 C 79 % 1018,6 hPa 0,0 mm 0,0 km/h (0 Bft) N-NE 22 0 min 0 W/m 15,4 C 19,1 C 0,0 km/h (0 Bft)
28/05/2012 10:00 19,7 C 77 % 1018,5 hPa 0,0 mm 2,5 km/h (1 Bft) N-NE 22 0 min 0 W/m 15,5 C 19,7 C 4,0 km/h (1 Bft)
28/05/2012 10:10 20,0 C 75 % 1018,5 hPa 0,0 mm 4,7 km/h (1 Bft) NE 45 0 min 0 W/m 15,4 C 20,0 C 8,3 km/h (2 Bft)
28/05/2012 10:20 20,3 C 74 % 1018,5 hPa 0,0 mm 1,1 km/h (1 Bft) N 360 0 min 0 W/m 15,5 C 20,3 C 3,2 km/h (1 Bft)
28/05/2012 10:30 20,6 C 73 % 1018,4 hPa 0,0 mm 6,8 km/h (2 Bft) N-NE 22 0 min 0 W/m 15,6 C 20,6 C 7,9 km/h (2 Bft)
28/05/2012 10:40 21,0 C 71 % 1018,4 hPa 0,0 mm 8,6 km/h (2 Bft) NE 45 0 min 0 W/m 15,5 C 21,0 C 17,6 km/h (3 Bft)
28/05/2012 10:50 21,3 C 69 % 1018,4 hPa 0,0 mm 3,6 km/h (1 Bft) NE 45 0 min 0 W/m 15,4 C 21,3 C 9,4 km/h (2 Bft)
28/05/2012 11:00 21,5 C 65 % 1018,4 hPa 0,0 mm 7,6 km/h (2 Bft) N 360 0 min 0 W/m 14,6 C 21,5 C 11,9 km/h (2 Bft)
28/05/2012 11:10 21,6 C 65 % 1018,5 hPa 0,0 mm 5,0 km/h (1 Bft) NE 45 0 min 0 W/m 14,7 C 21,6 C 7,2 km/h (2 Bft)
28/05/2012 11:20 21,8 C 62 % 1018,5 hPa 0,0 mm 9,0 km/h (2 Bft) N 360 0 min 0 W/m 14,2 C 21,8 C 11,9 km/h (2 Bft)
28/05/2012 11:30 22,0 C 64 % 1018,4 hPa 0,0 mm 5,0 km/h (1 Bft) N-NE 22 0 min 0 W/m 14,9 C 22,0 C 6,5 km/h (2 Bft)
28/05/2012 11:40 22,5 C 62 % 1018,4 hPa 0,0 mm 7,2 km/h (2 Bft) E-NE 67 0 min 0 W/m 14,8 C 22,5 C 11,2 km/h (2 Bft)
28/05/2012 11:50 22,9 C 60 % 1018,5 hPa 0,0 mm 5,4 km/h (2 Bft) N-NO 337 0 min 0 W/m 14,7 C 22,9 C 10,4 km/h (2 Bft)
28/05/2012 12:00 23,1 C 59 % 1018,6 hPa 0,0 mm 5,4 km/h (2 Bft) N 360 0 min 0 W/m 14,6 C 23,1 C 5,4 km/h (2 Bft)
28/05/2012 12:10 23,2 C 58 % 1018,4 hPa 0,0 mm 7,9 km/h (2 Bft) N 360 0 min 0 W/m 14,5 C 23,2 C 13,0 km/h (3 Bft)
28/05/2012 12:20 23,2 C 57 % 1018,4 hPa 0,0 mm 6,1 km/h (2 Bft) N-NE 22 0 min 0 W/m 14,2 C 23,2 C 9,4 km/h (2 Bft)
28/05/2012 12:30 23,3 C 57 % 1018,3 hPa 0,0 mm 6,8 km/h (2 Bft) N-NO 337 0 min 0 W/m 14,3 C 23,3 C 15,8 km/h (3 Bft)
28/05/2012 12:40 23,4 C 54 % 1018,4 hPa 0,0 mm 9,7 km/h (2 Bft) N 360 0 min 0 W/m 13,6 C 23,4 C 15,5 km/h (3 Bft)
28/05/2012 12:50 23,3 C 53 % 1018,4 hPa 0,0 mm 6,8 km/h (2 Bft) N 360 0 min 0 W/m 13,2 C 23,3 C 9,4 km/h (2 Bft)
28/05/2012 13:00 23,4 C 52 % 1018,2 hPa 0,0 mm 8,6 km/h (2 Bft) N-NE 22 0 min 0 W/m 13,0 C 23,4 C 8,6 km/h (2 Bft)
28/05/2012 13:10 23,5 C 53 % 1018,2 hPa 0,0 mm 3,6 km/h (1 Bft) NO 315 0 min 0 W/m 13,4 C 23,5 C 7,2 km/h (2 Bft)
28/05/2012 13:20 23,9 C 53 % 1018,2 hPa 0,0 mm 6,1 km/h (2 Bft) N 360 0 min 0 W/m 13,7 C 23,9 C 11,5 km/h (2 Bft)
28/05/2012 13:30 24,1 C 51 % 1018,2 hPa 0,0 mm 6,5 km/h (2 Bft) N-NO 337 0 min 0 W/m 13,3 C 24,1 C 7,2 km/h (2 Bft)
28/05/2012 13:40 24,3 C 52 % 1018,3 hPa 0,0 mm 4,7 km/h (1 Bft) NE 45 0 min 0 W/m 13,8 C 24,3 C 4,7 km/h (1 Bft)
28/05/2012 13:50 24,3 C 51 % 1018,3 hPa 0,0 mm 5,8 km/h (2 Bft) N 360 0 min 0 W/m 13,5 C 24,3 C 14,0 km/h (3 Bft)
28/05/2012 14:00 24,4 C 53 % 1018,2 hPa 0,0 mm 1,1 km/h (1 Bft) N-NE 22 0 min 0 W/m 14,2 C 24,4 C 3,6 km/h (1 Bft)
28/05/2012 14:10 24,6 C 51 % 1018,2 hPa 0,0 mm 6,1 km/h (2 Bft) N-NE 22 0 min 0 W/m 13,8 C 24,6 C 11,5 km/h (2 Bft)
28/05/2012 14:20 24,8 C 51 % 1018,0 hPa 0,0 mm 3,2 km/h (1 Bft) N-NE 22 0 min 0 W/m 14,0 C 24,8 C 7,2 km/h (2 Bft)
28/05/2012 14:30 24,9 C 51 % 1018,1 hPa 0,0 mm 1,8 km/h (1 Bft) N 360 0 min 0 W/m 14,1 C 24,9 C 6,5 km/h (2 Bft)
28/05/2012 14:40 24,9 C 51 % 1017,9 hPa 0,0 mm 4,3 km/h (1 Bft) E-NE 67 0 min 0 W/m 14,1 C 24,9 C 4,3 km/h (1 Bft)
28/05/2012 14:50 24,9 C 51 % 1017,8 hPa 0,0 mm 2,5 km/h (1 Bft) NE 45 0 min 0 W/m 14,1 C 24,9 C 4,3 km/h (1 Bft)
28/05/2012 15:00 24,8 C 51 % 1017,8 hPa 0,0 mm 4,7 km/h (1 Bft) N-NO 337 0 min 0 W/m 14,0 C 24,8 C 4,7 km/h (1 Bft)
28/05/2012 15:10 24,8 C 52 % 1017,7 hPa 0,0 mm 9,7 km/h (2 Bft) O 270 0 min 0 W/m 14,3 C 24,8 C 14,0 km/h (3 Bft)
28/05/2012 15:20 24,8 C 49 % 1017,7 hPa 0,0 mm 6,1 km/h (2 Bft) N-NE 22 0 min 0 W/m 13,3 C 24,8 C 9,7 km/h (2 Bft)
28/05/2012 15:30 24,6 C 49 % 1017,6 hPa 0,0 mm 6,8 km/h (2 Bft) N-NE 22 0 min 0 W/m 13,2 C 24,6 C 16,9 km/h (3 Bft)
28/05/2012 15:40 24,4 C 50 % 1017,5 hPa 0,0 mm 8,6 km/h (2 Bft) N-NE 22 0 min 0 W/m 13,3 C 24,4 C 13,3 km/h (3 Bft)
28/05/2012 15:50 24,2 C 51 % 1017,5 hPa 0,0 mm 5,4 km/h (2 Bft) N-NE 22 0 min 0 W/m 13,4 C 24,2 C 9,7 km/h (2 Bft)
28/05/2012 16:00 24,0 C 51 % 1017,4 hPa 0,0 mm 5,8 km/h (2 Bft) N 360 0 min 0 W/m 13,2 C 24,0 C 6,1 km/h (2 Bft)
28/05/2012 16:10 24,1 C 52 % 1017,5 hPa 0,0 mm 2,2 km/h (1 Bft) N-NE 22 0 min 0 W/m 13,6 C 24,1 C 2,2 km/h (1 Bft)
28/05/2012 16:20 24,3 C 51 % 1017,4 hPa 0,0 mm 1,4 km/h (1 Bft) N-NO 337 0 min 0 W/m 13,5 C 24,3 C 1,4 km/h (1 Bft)
28/05/2012 16:30 24,3 C 51 % 1017,3 hPa 0,0 mm 8,3 km/h (2 Bft) N-NE 22 0 min 0 W/m 13,5 C 24,3 C 13,0 km/h (3 Bft)
28/05/2012 16:40 24,3 C 50 % 1017,2 hPa 0,0 mm 9,4 km/h (2 Bft) N 360 0 min 0 W/m 13,2 C 24,3 C 13,7 km/h (3 Bft)
28/05/2012 16:50 24,3 C 50 % 1017,2 hPa 0,0 mm 2,5 km/h (1 Bft) N 360 0 min 0 W/m 13,2 C 24,3 C 2,5 km/h (1 Bft)
28/05/2012 17:00 24,3 C 50 % 1017,1 hPa 0,0 mm 3,2 km/h (1 Bft) N 360 0 min 0 W/m 13,2 C 24,3 C 6,8 km/h (2 Bft)
28/05/2012 17:10 24,1 C 48 % 1017,1 hPa 0,0 mm 10,1 km/h (2 Bft) N-NE 22 0 min 0 W/m 12,4 C 24,1 C 10,4 km/h (2 Bft)
28/05/2012 17:20 23,9 C 49 % 1017,0 hPa 0,0 mm 8,6 km/h (2 Bft) N-NE 22 0 min 0 W/m 12,5 C 23,9 C 13,0 km/h (3 Bft)
28/05/2012 17:30 23,8 C 49 % 1017,0 hPa 0,0 mm 4,7 km/h (1 Bft) N-NE 22 0 min 0 W/m 12,4 C 23,8 C 4,7 km/h (1 Bft)
28/05/2012 17:40 23,6 C 49 % 1016,9 hPa 0,0 mm 2,5 km/h (1 Bft) NE 45 0 min 0 W/m 12,2 C 23,6 C 4,3 km/h (1 Bft)
28/05/2012 17:50 23,6 C 49 % 1016,9 hPa 0,0 mm 2,2 km/h (1 Bft) N 360 0 min 0 W/m 12,2 C 23,6 C 4,3 km/h (1 Bft)
28/05/2012 18:00 23,8 C 49 % 1016,8 hPa 0,0 mm 7,2 km/h (2 Bft) N-NE 22 0 min 0 W/m 12,4 C 23,8 C 14,0 km/h (3 Bft)
28/05/2012 18:10 23,8 C 48 % 1016,8 hPa 0,0 mm 9,0 km/h (2 Bft) N-NE 22 0 min 0 W/m 12,1 C 23,8 C 13,3 km/h (3 Bft)
28/05/2012 18:20 23,7 C 48 % 1016,8 hPa 0,0 mm 3,6 km/h (1 Bft) N-NE 22 0 min 0 W/m 12,0 C 23,7 C 7,9 km/h (2 Bft)
28/05/2012 18:30 23,7 C 48 % 1016,7 hPa 0,0 mm 1,8 km/h (1 Bft) N 360 0 min 0 W/m 12,0 C 23,7 C 4,0 km/h (1 Bft)
28/05/2012 18:40 23,8 C 48 % 1016,6 hPa 0,0 mm 4,3 km/h (1 Bft) N-NE 22 0 min 0 W/m 12,1 C 23,8 C 7,6 km/h (2 Bft)
28/05/2012 18:50 23,8 C 48 % 1016,6 hPa 0,0 mm 3,6 km/h (1 Bft) N-NE 22 0 min 0 W/m 12,1 C 23,8 C 7,2 km/h (2 Bft)
28/05/2012 19:00 23,8 C 48 % 1016,7 hPa 0,0 mm 3,6 km/h (1 Bft) N 360 0 min 0 W/m 12,1 C 23,8 C 6,8 km/h (2 Bft)
28/05/2012 19:10 23,8 C 48 % 1016,5 hPa 0,0 mm 7,2 km/h (2 Bft) N-NE 22 0 min 0 W/m 12,1 C 23,8 C 13,3 km/h (3 Bft)
28/05/2012 19:20 23,6 C 48 % 1016,5 hPa 0,0 mm 1,8 km/h (1 Bft) N 360 0 min 0 W/m 11,9 C 23,6 C 3,2 km/h (1 Bft)
28/05/2012 19:30 23,6 C 50 % 1016,5 hPa 0,0 mm 2,9 km/h (1 Bft) N-NE 22 0 min 0 W/m 12,6 C 23,6 C 4,3 km/h (1 Bft)
28/05/2012 19:40 23,6 C 50 % 1016,5 hPa 0,0 mm 5,0 km/h (1 Bft) N-NO 337 0 min 0 W/m 12,6 C 23,6 C 8,6 km/h (2 Bft)
28/05/2012 19:50 23,5 C 51 % 1016,5 hPa 0,0 mm 5,4 km/h (2 Bft) NO 315 0 min 0 W/m 12,8 C 23,5 C 5,4 km/h (2 Bft)
28/05/2012 20:00 23,1 C 52 % 1016,5 hPa 0,0 mm 1,4 km/h (1 Bft) N 360 0 min 0 W/m 12,7 C 23,1 C 4,0 km/h (1 Bft)
28/05/2012 20:10 22,6 C 53 % 1016,5 hPa 0,0 mm 0,7 km/h (0 Bft) N-NE 22 0 min 0 W/m 12,5 C 22,6 C 3,2 km/h (1 Bft)
28/05/2012 20:20 22,1 C 54 % 1016,5 hPa 0,0 mm 4,3 km/h (1 Bft) N-NE 22 0 min 0 W/m 12,3 C 22,1 C 4,3 km/h (1 Bft)
28/05/2012 20:30 21,6 C 56 % 1016,4 hPa 0,0 mm 6,1 km/h (2 Bft) N-NE 22 0 min 0 W/m 12,4 C 21,6 C 10,4 km/h (2 Bft)
28/05/2012 20:40 21,3 C 57 % 1016,5 hPa 0,0 mm 0,4 km/h (0 Bft) N-NE 22 0 min 0 W/m 12,4 C 21,3 C 4,0 km/h (1 Bft)
28/05/2012 20:50 20,9 C 58 % 1016,5 hPa 0,0 mm 1,4 km/h (1 Bft) N-NE 22 0 min 0 W/m 12,3 C 20,9 C 3,6 km/h (1 Bft)
28/05/2012 21:00 20,5 C 59 % 1016,4 hPa 0,0 mm 0,0 km/h (0 Bft) N-NE 22 0 min 0 W/m 12,2 C 20,5 C 0,0 km/h (0 Bft)
28/05/2012 21:10 20,1 C 60 % 1016,4 hPa 0,0 mm 0,0 km/h (0 Bft) N-NE 22 0 min 0 W/m 12,1 C 20,1 C 0,0 km/h (0 Bft)
28/05/2012 21:20 19,6 C 62 % 1016,3 hPa 0,0 mm 0,0 km/h (0 Bft) N-NE 22 0 min 0 W/m 12,1 C 19,6 C 0,0 km/h (0 Bft)
28/05/2012 21:30 19,2 C 63 % 1016,4 hPa 0,0 mm 0,0 km/h (0 Bft) N-NE 22 0 min 0 W/m 12,0 C 19,2 C 0,0 km/h (0 Bft)
28/05/2012 21:40 18,8 C 64 % 1016,5 hPa 0,0 mm 0,0 km/h (0 Bft) N-NE 22 0 min 0 W/m 11,8 C 18,8 C 0,0 km/h (0 Bft)
28/05/2012 21:50 18,4 C 65 % 1016,5 hPa 0,0 mm 0,0 km/h (0 Bft) N-NE 22 0 min 0 W/m 11,7 C 18,4 C 0,0 km/h (0 Bft)
28/05/2012 22:00 17,9 C 66 % 1016,5 hPa 0,0 mm 0,0 km/h (0 Bft) N-NE 22 0 min 0 W/m 11,5 C 17,9 C 0,0 km/h (0 Bft)
28/05/2012 22:10 17,5 C 67 % 1016,7 hPa 0,0 mm 0,0 km/h (0 Bft) N-NE 22 0 min 0 W/m 11,3 C 17,5 C 0,0 km/h (0 Bft)
28/05/2012 22:20 17,2 C 68 % 1016,8 hPa 0,0 mm 0,0 km/h (0 Bft) N-NE 22 0 min 0 W/m 11,2 C 17,2 C 0,0 km/h (0 Bft)
28/05/2012 22:30 16,8 C 69 % 1016,8 hPa 0,0 mm 0,0 km/h (0 Bft) N-NE 22 0 min 0 W/m 11,1 C 16,8 C 0,0 km/h (0 Bft)
28/05/2012 22:40 16,4 C 70 % 1016,9 hPa 0,0 mm 0,0 km/h (0 Bft) N-NE 22 0 min 0 W/m 10,9 C 16,4 C 0,0 km/h (0 Bft)
28/05/2012 22:50 16,2 C 72 % 1017,0 hPa 0,0 mm 0,0 km/h (0 Bft) N-NE 22 0 min 0 W/m 11,1 C 16,2 C 0,0 km/h (0 Bft)
28/05/2012 23:00 15,8 C 73 % 1017,0 hPa 0,0 mm 0,0 km/h (0 Bft) N-NE 22 0 min 0 W/m 11,0 C 15,8 C 0,0 km/h (0 Bft)
28/05/2012 23:10 15,6 C 73 % 1017,0 hPa 0,0 mm 0,0 km/h (0 Bft) N-NE 22 0 min 0 W/m 10,8 C 15,6 C 0,0 km/h (0 Bft)
28/05/2012 23:20 15,3 C 74 % 1017,1 hPa 0,0 mm 0,0 km/h (0 Bft) N-NE 22 0 min 0 W/m 10,7 C 15,3 C 0,0 km/h (0 Bft)
28/05/2012 23:30 15,1 C 75 % 1016,9 hPa 0,0 mm 0,0 km/h (0 Bft) N-NE 22 0 min 0 W/m 10,7 C 15,1 C 0,0 km/h (0 Bft)
28/05/2012 23:40 14,8 C 76 % 1017,0 hPa 0,0 mm 0,0 km/h (0 Bft) N-NE 22 0 min 0 W/m 10,6 C 14,8 C 0,0 km/h (0 Bft)
28/05/2012 23:50 14,7 C 76 % 1016,9 hPa 0,0 mm 0,0 km/h (0 Bft) N-NE 22 0 min 0 W/m 10,5 C 14,7 C 0,0 km/h (0 Bft)
_ Min-Heure 07:00 19:20 21:20 - 23:50 - - - - 06:50 07:00 23:50
Minimum _ 10,8 C 48 % 1016,3 hPa - 0,0 km/h (0 Bft) - - - - 8,7 C 10,8 C 0,0 km/h (0 Bft)
_ Max-Heure 14:50 08:00 09:30 23:50 17:10 - - 23:50 23:50 10:30 14:50 10:40
Maximum _ 24,9 C 90 % 1018,7 hPa 0,0 mm 10,1 km/h
N-NE (2 Bft)
- - 0 min 0 W/m 15,6 C 24,9 C 17,6 km/h
NE (3 Bft)
Moyenne _ 18,3 C 68 % 1017,5 hPa #0,0 mm 2,4 km/h (1 Bft) N-NE - #0 min. 0 W/m 11,9 C 18,3 C 4,0 km/h (1 Bft)
Saint Bonnet de Bellac- Haute Vienne - France